sensor_id;sensor_type;location;lat;lon;timestamp;pressure;altitude;pressure_sealevel;temperature;humidity
48778;BME280;34578;0.000;0.000;2023-05-24T00:02:03;96803.19;;;17.93;61.05
48778;BME280;34578;0.000;0.000;2023-05-24T00:07:08;96797.31;;;17.93;61.03
48778;BME280;34578;0.000;0.000;2023-05-24T00:12:08;96802.41;;;18.09;63.28
48778;BME280;34578;0.000;0.000;2023-05-24T00:17:11;96800.75;;;18.23;66.39
48778;BME280;34578;0.000;0.000;2023-05-24T00:22:12;96792.31;;;18.17;63.42
48778;BME280;34578;0.000;0.000;2023-05-24T00:27:14;96799.88;;;18.06;62.25
48778;BME280;34578;0.000;0.000;2023-05-24T00:32:14;96804.94;;;18.02;61.40
48778;BME280;34578;0.000;0.000;2023-05-24T00:37:14;96806.59;;;17.97;61.30
48778;BME280;34578;0.000;0.000;2023-05-24T00:42:16;96809.16;;;17.95;61.33
48778;BME280;34578;0.000;0.000;2023-05-24T00:47:16;96811.66;;;17.94;61.35
48778;BME280;34578;0.000;0.000;2023-05-24T00:52:19;96813.34;;;17.93;61.19
48778;BME280;34578;0.000;0.000;2023-05-24T00:57:22;96815.03;;;17.93;61.11
48778;BME280;34578;0.000;0.000;2023-05-24T01:02:26;96820.09;;;17.93;60.87
48778;BME280;34578;0.000;0.000;2023-05-24T01:12:57;96812.50;;;17.91;60.80
48778;BME280;34578;0.000;0.000;2023-05-24T01:18:06;96813.41;;;18.10;62.98
48778;BME280;34578;0.000;0.000;2023-05-24T01:23:18;96815.13;;;18.23;65.08
48778;BME280;34578;0.000;0.000;2023-05-24T01:28:28;96817.63;;;18.18;63.50
48778;BME280;34578;0.000;0.000;2023-05-24T01:33:31;96811.69;;;18.06;62.15
48778;BME280;34578;0.000;0.000;2023-05-24T01:38:31;96807.47;;;17.99;61.17
48778;BME280;34578;0.000;0.000;2023-05-24T01:43:37;96796.47;;;17.95;61.23
48778;BME280;34578;0.000;0.000;2023-05-24T01:54:05;96809.97;;;17.93;61.07
48778;BME280;34578;0.000;0.000;2023-05-24T01:59:07;96808.28;;;17.92;60.86
48778;BME280;34578;0.000;0.000;2023-05-24T02:04:08;96815.03;;;17.90;60.99
48778;BME280;34578;0.000;0.000;2023-05-24T02:09:09;96804.91;;;17.90;60.71
48778;BME280;34578;0.000;0.000;2023-05-24T02:14:09;96811.66;;;17.91;60.75
48778;BME280;34578;0.000;0.000;2023-05-24T02:19:10;96809.13;;;17.89;60.65
48778;BME280;34578;0.000;0.000;2023-05-24T02:24:10;96798.19;;;18.13;63.09
48778;BME280;34578;0.000;0.000;2023-05-24T02:29:11;96790.63;;;18.20;63.43
48778;BME280;34578;0.000;0.000;2023-05-24T02:34:12;96784.69;;;18.11;63.14
48778;BME280;34578;0.000;0.000;2023-05-24T02:39:12;96789.72;;;18.02;62.00
48778;BME280;34578;0.000;0.000;2023-05-24T02:44:13;96775.34;;;17.90;60.92
48778;BME280;34578;0.000;0.000;2023-05-24T02:49:13;96779.59;;;17.90;61.05
48778;BME280;34578;0.000;0.000;2023-05-24T02:54:13;96782.09;;;17.91;60.89
48778;BME280;34578;0.000;0.000;2023-05-24T02:59:17;96771.97;;;17.91;60.56
48778;BME280;34578;0.000;0.000;2023-05-24T03:04:18;96768.63;;;17.95;60.84
48778;BME280;34578;0.000;0.000;2023-05-24T03:09:18;96758.47;;;17.98;60.16
48778;BME280;34578;0.000;0.000;2023-05-24T03:14:19;96751.72;;;17.97;60.56
48778;BME280;34578;0.000;0.000;2023-05-24T03:19:21;96760.19;;;18.01;59.86
48778;BME280;34578;0.000;0.000;2023-05-24T03:24:22;96761.03;;;18.04;62.07
48778;BME280;34578;0.000;0.000;2023-05-24T03:29:23;96759.38;;;18.20;67.99
48778;BME280;34578;0.000;0.000;2023-05-24T03:34:24;96761.06;;;18.21;64.25
48778;BME280;34578;0.000;0.000;2023-05-24T03:39:25;96770.34;;;18.16;60.33
48778;BME280;34578;0.000;0.000;2023-05-24T03:44:37;96776.25;;;18.10;60.17
48778;BME280;34578;0.000;0.000;2023-05-24T03:49:40;96788.91;;;18.07;60.35
48778;BME280;34578;0.000;0.000;2023-05-24T03:54:43;96793.97;;;18.04;60.96
48778;BME280;34578;0.000;0.000;2023-05-24T03:59:45;96801.56;;;18.06;60.08
48778;BME280;34578;0.000;0.000;2023-05-24T04:04:45;96801.56;;;18.03;60.23
48778;BME280;34578;0.000;0.000;2023-05-24T04:09:46;96790.56;;;17.92;60.23
48778;BME280;34578;0.000;0.000;2023-05-24T04:14:47;96804.09;;;18.03;60.27
48778;BME280;34578;0.000;0.000;2023-05-24T04:19:47;96808.31;;;18.04;60.23
48778;BME280;34578;0.000;0.000;2023-05-24T04:24:47;96804.94;;;18.03;60.25
48778;BME280;34578;0.000;0.000;2023-05-24T04:29:48;96803.28;;;18.16;62.59
48778;BME280;34578;0.000;0.000;2023-05-24T04:34:50;96805.00;;;18.26;64.48
48778;BME280;34578;0.000;0.000;2023-05-24T04:39:51;96818.53;;;18.25;63.78
48778;BME280;34578;0.000;0.000;2023-05-24T04:44:52;96817.66;;;18.17;61.34
48778;BME280;34578;0.000;0.000;2023-05-24T04:49:52;96820.19;;;18.12;60.78
48778;BME280;34578;0.000;0.000;2023-05-24T04:54:53;96806.66;;;18.09;60.62
48778;BME280;34578;0.000;0.000;2023-05-24T04:59:54;96810.00;;;18.05;60.57
48778;BME280;34578;0.000;0.000;2023-05-24T05:04:55;96803.22;;;17.99;60.36
48778;BME280;34578;0.000;0.000;2023-05-24T05:09:55;96806.63;;;18.03;60.21
48778;BME280;34578;0.000;0.000;2023-05-24T05:14:56;96810.00;;;18.02;60.55
48778;BME280;34578;0.000;0.000;2023-05-24T05:19:56;96800.72;;;18.01;60.23
48778;BME280;34578;0.000;0.000;2023-05-24T05:24:56;96805.78;;;18.01;60.28
48778;BME280;34578;0.000;0.000;2023-05-24T05:29:57;96809.13;;;18.01;62.81
48778;BME280;34578;0.000;0.000;2023-05-24T05:34:57;96808.31;;;17.98;62.99
48778;BME280;34578;0.000;0.000;2023-05-24T05:39:58;96810.91;;;18.16;64.34
48778;BME280;34578;0.000;0.000;2023-05-24T05:44:58;96804.13;;;18.13;63.03
48778;BME280;34578;0.000;0.000;2023-05-24T05:49:58;96805.78;;;18.08;60.30
48778;BME280;34578;0.000;0.000;2023-05-24T05:54:59;96798.16;;;17.99;60.62
48778;BME280;34578;0.000;0.000;2023-05-24T05:59:59;96804.94;;;17.99;60.29
48778;BME280;34578;0.000;0.000;2023-05-24T06:05:00;96815.91;;;18.01;60.23
48778;BME280;34578;0.000;0.000;2023-05-24T06:10:02;96818.44;;;18.01;60.56
48778;BME280;34578;0.000;0.000;2023-05-24T06:15:03;96815.06;;;17.99;60.31
48778;BME280;34578;0.000;0.000;2023-05-24T06:20:05;96820.09;;;17.96;60.03
48778;BME280;34578;0.000;0.000;2023-05-24T06:25:08;96815.91;;;17.99;60.48
48778;BME280;34578;0.000;0.000;2023-05-24T06:30:09;96822.66;;;17.99;60.33
48778;BME280;34578;0.000;0.000;2023-05-24T06:35:09;96823.50;;;17.98;60.42
48778;BME280;34578;0.000;0.000;2023-05-24T06:40:10;96826.06;;;18.10;63.67
48778;BME280;34578;0.000;0.000;2023-05-24T06:45:14;96838.78;;;18.23;67.71
48778;BME280;34578;0.000;0.000;2023-05-24T06:50:15;96836.25;;;18.20;64.23
48778;BME280;34578;0.000;0.000;2023-05-24T06:55:15;96837.06;;;18.12;61.20
48778;BME280;34578;0.000;0.000;2023-05-24T07:00:16;96843.81;;;18.07;60.57
48778;BME280;34578;0.000;0.000;2023-05-24T07:05:17;96852.22;;;18.03;61.00
48778;BME280;34578;0.000;0.000;2023-05-24T07:10:18;96847.16;;;18.00;60.70
48778;BME280;34578;0.000;0.000;2023-05-24T07:15:18;96852.22;;;18.00;60.55
48778;BME280;34578;0.000;0.000;2023-05-24T07:20:18;96847.13;;;17.98;60.83
48778;BME280;34578;0.000;0.000;2023-05-24T07:25:19;96846.31;;;17.98;60.58
48778;BME280;34578;0.000;0.000;2023-05-24T07:30:19;96847.97;;;17.97;60.54
48778;BME280;34578;0.000;0.000;2023-05-24T07:35:20;96845.44;;;17.93;60.54
48778;BME280;34578;0.000;0.000;2023-05-24T07:40:21;96853.03;;;17.94;60.38
48778;BME280;34578;0.000;0.000;2023-05-24T07:45:22;96864.91;;;18.12;63.36
48778;BME280;34578;0.000;0.000;2023-05-24T07:50:22;96870.06;;;18.24;66.93
48778;BME280;34578;0.000;0.000;2023-05-24T07:55:23;96861.56;;;18.22;63.59
48778;BME280;34578;0.000;0.000;2023-05-24T08:00:23;96870.84;;;18.14;61.37
48778;BME280;34578;0.000;0.000;2023-05-24T08:05:24;96860.66;;;18.02;60.97
48778;BME280;34578;0.000;0.000;2023-05-24T08:10:25;96875.88;;;18.02;60.89
48778;BME280;34578;0.000;0.000;2023-05-24T08:15:25;96884.31;;;18.01;60.87
48778;BME280;34578;0.000;0.000;2023-05-24T08:20:25;96890.22;;;18.01;60.77
48778;BME280;34578;0.000;0.000;2023-05-24T08:25:26;96890.19;;;17.98;60.84
48778;BME280;34578;0.000;0.000;2023-05-24T08:30:29;96900.34;;;18.00;60.82
48778;BME280;34578;0.000;0.000;2023-05-24T08:35:29;96888.50;;;17.97;60.69
48778;BME280;34578;0.000;0.000;2023-05-24T08:40:30;96895.25;;;17.97;60.64
48778;BME280;34578;0.000;0.000;2023-05-24T08:45:31;96896.09;;;17.93;60.37
48778;BME280;34578;0.000;0.000;2023-05-24T08:50:34;96897.84;;;18.12;63.58
48778;BME280;34578;0.000;0.000;2023-05-24T08:55:34;96892.84;;;18.24;67.16
48778;BME280;34578;0.000;0.000;2023-05-24T09:00:35;96891.13;;;18.23;63.69
48778;BME280;34578;0.000;0.000;2023-05-24T09:05:38;96897.00;;;18.10;61.41
48778;BME280;34578;0.000;0.000;2023-05-24T09:10:40;96894.47;;;18.05;60.65
48778;BME280;34578;0.000;0.000;2023-05-24T09:15:40;96887.66;;;17.98;60.57
48778;BME280;34578;0.000;0.000;2023-05-24T09:20:40;96890.22;;;18.00;60.93
48778;BME280;34578;0.000;0.000;2023-05-24T09:25:43;96901.19;;;17.99;60.82
48778;BME280;34578;0.000;0.000;2023-05-24T09:30:45;96904.56;;;17.98;60.66
48778;BME280;34578;0.000;0.000;2023-05-24T09:36:00;96912.97;;;17.97;60.27
48778;BME280;34578;0.000;0.000;2023-05-24T09:41:02;96919.75;;;17.96;60.57
48778;BME280;34578;0.000;0.000;2023-05-24T09:46:03;96916.34;;;17.96;60.65
48778;BME280;34578;0.000;0.000;2023-05-24T09:56:05;96926.59;;;18.14;63.11
48778;BME280;34578;0.000;0.000;2023-05-24T10:01:09;96925.78;;;18.25;67.84
48778;BME280;34578;0.000;0.000;2023-05-24T10:06:18;96924.94;;;18.20;63.73
48778;BME280;34578;0.000;0.000;2023-05-24T10:11:19;96928.28;;;18.10;61.77
48778;BME280;34578;0.000;0.000;2023-05-24T10:16:20;96937.53;;;18.02;61.14
48778;BME280;34578;0.000;0.000;2023-05-24T10:21:22;96934.94;;;17.96;60.70
48778;BME280;34578;0.000;0.000;2023-05-24T10:26:24;96939.19;;;18.00;60.89
48778;BME280;34578;0.000;0.000;2023-05-24T10:31:35;96933.25;;;17.94;60.54
48778;BME280;34578;0.000;0.000;2023-05-24T10:36:38;96930.72;;;17.94;61.67
48778;BME280;34578;0.000;0.000;2023-05-24T10:41:40;96938.31;;;17.97;60.82
48778;BME280;34578;0.000;0.000;2023-05-24T10:47:09;96934.94;;;17.96;61.20
48778;BME280;34578;0.000;0.000;2023-05-24T10:52:11;96934.09;;;17.93;60.63
48778;BME280;34578;0.000;0.000;2023-05-24T10:57:11;96934.09;;;17.96;60.49
48778;BME280;34578;0.000;0.000;2023-05-24T11:02:12;96945.19;;;18.19;66.32
48778;BME280;34578;0.000;0.000;2023-05-24T11:07:14;96941.84;;;18.21;64.81
48778;BME280;34578;0.000;0.000;2023-05-24T11:12:17;96941.81;;;18.17;62.66
48778;BME280;34578;0.000;0.000;2023-05-24T11:17:22;96940.06;;;18.04;61.15
48778;BME280;34578;0.000;0.000;2023-05-24T11:22:24;96942.59;;;18.02;60.91
48778;BME280;34578;0.000;0.000;2023-05-24T11:27:24;96943.41;;;17.98;60.72
48778;BME280;34578;0.000;0.000;2023-05-24T11:32:25;96935.75;;;17.89;60.63
48778;BME280;34578;0.000;0.000;2023-05-24T11:37:26;96940.88;;;17.95;60.67
48778;BME280;34578;0.000;0.000;2023-05-24T11:42:27;96936.63;;;17.96;60.65
48778;BME280;34578;0.000;0.000;2023-05-24T11:47:27;96935.75;;;17.92;60.37
48778;BME280;34578;0.000;0.000;2023-05-24T11:52:28;96939.13;;;17.91;60.35
48778;BME280;34578;0.000;0.000;2023-05-24T11:57:37;96926.50;;;17.93;60.55
48778;BME280;34578;0.000;0.000;2023-05-24T12:02:40;96918.03;;;17.94;60.56
48778;BME280;34578;0.000;0.000;2023-05-24T12:07:41;96905.47;;;18.10;63.08
48778;BME280;34578;0.000;0.000;2023-05-24T12:12:47;96908.06;;;18.24;62.87
48778;BME280;34578;0.000;0.000;2023-05-24T12:17:48;96908.88;;;18.17;61.90
48778;BME280;34578;0.000;0.000;2023-05-24T12:22:54;96898.69;;;18.03;60.79
48778;BME280;34578;0.000;0.000;2023-05-24T12:27:55;96899.50;;;17.99;60.65
48778;BME280;34578;0.000;0.000;2023-05-24T12:32:55;96896.13;;;17.99;60.63
48778;BME280;34578;0.000;0.000;2023-05-24T12:37:59;96885.97;;;17.97;60.60
48778;BME280;34578;0.000;0.000;2023-05-24T12:43:01;96882.59;;;17.95;60.53
48778;BME280;34578;0.000;0.000;2023-05-24T12:48:03;96877.53;;;17.94;60.52
48778;BME280;34578;0.000;0.000;2023-05-24T12:53:04;96874.13;;;17.92;60.07
48778;BME280;34578;0.000;0.000;2023-05-24T12:58:04;96872.44;;;17.91;60.42
48778;BME280;34578;0.000;0.000;2023-05-24T13:03:07;96865.69;;;17.90;60.18
48778;BME280;34578;0.000;0.000;2023-05-24T13:08:08;96869.94;;;18.01;61.78
48778;BME280;34578;0.000;0.000;2023-05-24T13:13:08;96867.50;;;18.19;65.57
48778;BME280;34578;0.000;0.000;2023-05-24T13:18:09;96857.38;;;18.22;63.37
48778;BME280;34578;0.000;0.000;2023-05-24T13:23:09;96853.94;;;18.13;62.34
48778;BME280;34578;0.000;0.000;2023-05-24T13:28:09;96842.09;;;18.00;60.53
48778;BME280;34578;0.000;0.000;2023-05-24T13:33:10;96839.53;;;17.98;60.50
48778;BME280;34578;0.000;0.000;2023-05-24T13:38:10;96838.69;;;17.95;60.98
48778;BME280;34578;0.000;0.000;2023-05-24T13:43:11;96826.00;;;17.95;60.23
48778;BME280;34578;0.000;0.000;2023-05-24T13:48:12;96828.56;;;17.95;60.17
48778;BME280;34578;0.000;0.000;2023-05-24T13:53:12;96824.31;;;17.94;60.23
48778;BME280;34578;0.000;0.000;2023-05-24T13:58:13;96815.88;;;17.92;60.28
48778;BME280;34578;0.000;0.000;2023-05-24T14:03:14;96818.44;;;17.98;61.99
48778;BME280;34578;0.000;0.000;2023-05-24T14:08:15;96816.72;;;17.97;60.48
48778;BME280;34578;0.000;0.000;2023-05-24T14:13:15;96824.34;;;18.06;62.12
48778;BME280;34578;0.000;0.000;2023-05-24T14:18:16;96823.56;;;18.22;66.45
48778;BME280;34578;0.000;0.000;2023-05-24T14:23:16;96818.50;;;18.23;64.22
48778;BME280;34578;0.000;0.000;2023-05-24T14:28:18;96815.09;;;18.15;62.87
48778;BME280;34578;0.000;0.000;2023-05-24T14:33:18;96808.34;;;18.07;61.15
48778;BME280;34578;0.000;0.000;2023-05-24T14:38:19;96798.19;;;18.04;60.90
48778;BME280;34578;0.000;0.000;2023-05-24T14:43:19;96799.88;;;18.02;60.83
48778;BME280;34578;0.000;0.000;2023-05-24T14:48:20;96800.72;;;18.01;61.11
48778;BME280;34578;0.000;0.000;2023-05-24T14:53:20;96789.72;;;18.00;61.01
48778;BME280;34578;0.000;0.000;2023-05-24T14:58:21;96789.75;;;17.99;61.07
48778;BME280;34578;0.000;0.000;2023-05-24T15:03:23;96788.91;;;18.04;62.81
48778;BME280;34578;0.000;0.000;2023-05-24T15:08:24;96788.88;;;18.03;62.71
48778;BME280;34578;0.000;0.000;2023-05-24T15:13:27;96787.22;;;18.03;62.02
48778;BME280;34578;0.000;0.000;2023-05-24T15:18:29;96779.66;;;18.17;63.55
48778;BME280;34578;0.000;0.000;2023-05-24T15:23:30;96779.66;;;18.26;66.57
48778;BME280;34578;0.000;0.000;2023-05-24T15:28:31;96776.31;;;18.30;64.39
48778;BME280;34578;0.000;0.000;2023-05-24T15:33:31;96768.66;;;18.22;63.14
48778;BME280;34578;0.000;0.000;2023-05-24T15:38:32;96767.78;;;18.13;61.77
48778;BME280;34578;0.000;0.000;2023-05-24T15:43:33;96772.00;;;18.06;61.33
48778;BME280;34578;0.000;0.000;2023-05-24T15:48:33;96766.09;;;18.06;61.52
48778;BME280;34578;0.000;0.000;2023-05-24T15:53:33;96765.25;;;18.04;61.50
48778;BME280;34578;0.000;0.000;2023-05-24T15:58:34;96767.78;;;18.04;61.28
48778;BME280;34578;0.000;0.000;2023-05-24T16:03:34;96762.72;;;18.04;61.41
48778;BME280;34578;0.000;0.000;2023-05-24T16:08:36;96763.56;;;18.03;61.44
48778;BME280;34578;0.000;0.000;2023-05-24T16:13:37;96762.72;;;18.04;61.03
48778;BME280;34578;0.000;0.000;2023-05-24T16:18:37;96766.94;;;18.02;61.01
48778;BME280;34578;0.000;0.000;2023-05-24T16:23:37;96769.50;;;18.11;61.74
48778;BME280;34578;0.000;0.000;2023-05-24T16:28:38;96763.63;;;18.28;59.43
48778;BME280;34578;0.000;0.000;2023-05-24T16:33:38;96763.63;;;18.30;61.93
48778;BME280;34578;0.000;0.000;2023-05-24T16:38:39;96743.31;;;18.15;60.86
48778;BME280;34578;0.000;0.000;2023-05-24T16:43:39;96751.75;;;18.11;61.13
48778;BME280;34578;0.000;0.000;2023-05-24T16:48:42;96759.34;;;18.08;60.64
48778;BME280;34578;0.000;0.000;2023-05-24T16:53:42;96755.09;;;18.04;60.52
48778;BME280;34578;0.000;0.000;2023-05-24T16:58:42;96754.25;;;18.05;60.85
48778;BME280;34578;0.000;0.000;2023-05-24T17:03:43;96760.19;;;18.04;60.86
48778;BME280;34578;0.000;0.000;2023-05-24T17:08:43;96751.72;;;18.02;60.71
48778;BME280;34578;0.000;0.000;2023-05-24T17:13:44;96755.97;;;18.00;60.45
48778;BME280;34578;0.000;0.000;2023-05-24T17:18:44;96761.03;;;18.00;60.14
48778;BME280;34578;0.000;0.000;2023-05-24T17:23:45;96768.63;;;18.00;61.79
48778;BME280;34578;0.000;0.000;2023-05-24T17:28:45;96769.50;;;18.11;62.28
48778;BME280;34578;0.000;0.000;2023-05-24T17:33:46;96773.72;;;18.25;64.79
48778;BME280;34578;0.000;0.000;2023-05-24T17:38:46;96783.88;;;18.27;61.49
48778;BME280;34578;0.000;0.000;2023-05-24T17:43:46;96773.72;;;18.21;60.05
48778;BME280;34578;0.000;0.000;2023-05-24T17:48:47;96779.63;;;18.18;60.05
48778;BME280;34578;0.000;0.000;2023-05-24T17:53:47;96790.63;;;18.19;59.93
48778;BME280;34578;0.000;0.000;2023-05-24T17:58:48;96787.22;;;18.15;60.04
48778;BME280;34578;0.000;0.000;2023-05-24T18:03:49;96795.69;;;18.19;59.94
48778;BME280;34578;0.000;0.000;2023-05-24T18:08:49;96791.47;;;18.18;60.07
48778;BME280;34578;0.000;0.000;2023-05-24T18:13:50;96810.06;;;18.17;60.01
48778;BME280;34578;0.000;0.000;2023-05-24T18:18:50;96817.63;;;18.18;60.95
48778;BME280;34578;0.000;0.000;2023-05-24T18:23:51;96799.06;;;18.09;60.93
48778;BME280;34578;0.000;0.000;2023-05-24T18:28:51;96826.94;;;18.15;60.60
48778;BME280;34578;0.000;0.000;2023-05-24T18:33:51;96820.19;;;18.20;64.05
48778;BME280;34578;0.000;0.000;2023-05-24T18:38:52;96832.94;;;18.32;65.18
48778;BME280;34578;0.000;0.000;2023-05-24T18:43:52;96839.69;;;18.33;61.41
48778;BME280;34578;0.000;0.000;2023-05-24T18:48:53;96839.66;;;18.30;61.68
48778;BME280;34578;0.000;0.000;2023-05-24T18:53:53;96845.56;;;18.26;61.07
48778;BME280;34578;0.000;0.000;2023-05-24T18:58:54;96845.53;;;18.23;60.96
48778;BME280;34578;0.000;0.000;2023-05-24T19:03:57;96839.63;;;18.18;60.64
48778;BME280;34578;0.000;0.000;2023-05-24T19:08:58;96848.91;;;18.19;60.91
48778;BME280;34578;0.000;0.000;2023-05-24T19:14:01;96848.91;;;18.16;60.94
48778;BME280;34578;0.000;0.000;2023-05-24T19:19:02;96857.38;;;18.27;65.09
48778;BME280;34578;0.000;0.000;2023-05-24T19:24:02;96864.19;;;18.34;65.73
48778;BME280;34578;0.000;0.000;2023-05-24T19:29:03;96869.22;;;18.31;62.95
48778;BME280;34578;0.000;0.000;2023-05-24T19:34:03;96871.72;;;18.22;61.21
48778;BME280;34578;0.000;0.000;2023-05-24T19:39:04;96881.84;;;18.17;60.89
48778;BME280;34578;0.000;0.000;2023-05-24T19:44:04;96882.69;;;18.15;61.03
48778;BME280;34578;0.000;0.000;2023-05-24T19:49:04;96888.59;;;18.12;61.02
48778;BME280;34578;0.000;0.000;2023-05-24T19:54:05;96886.03;;;18.11;60.86
48778;BME280;34578;0.000;0.000;2023-05-24T19:59:08;96898.69;;;18.09;60.72
48778;BME280;34578;0.000;0.000;2023-05-24T20:04:11;96896.13;;;18.05;60.83
48778;BME280;34578;0.000;0.000;2023-05-24T20:09:12;96896.16;;;18.08;60.98
48778;BME280;34578;0.000;0.000;2023-05-24T20:14:17;96891.94;;;18.07;60.86
48778;BME280;34578;0.000;0.000;2023-05-24T20:19:19;96900.44;;;18.22;63.58
48778;BME280;34578;0.000;0.000;2023-05-24T20:24:20;96881.03;;;18.26;68.25
48778;BME280;34578;0.000;0.000;2023-05-24T20:29:23;96884.38;;;18.22;62.85
48778;BME280;34578;0.000;0.000;2023-05-24T20:34:23;96884.34;;;18.13;60.98
48778;BME280;34578;0.000;0.000;2023-05-24T20:39:24;96890.28;;;18.10;60.91
48778;BME280;34578;0.000;0.000;2023-05-24T20:44:24;96888.56;;;18.08;60.83
48778;BME280;34578;0.000;0.000;2023-05-24T20:49:25;96879.25;;;18.05;60.88
48778;BME280;34578;0.000;0.000;2023-05-24T20:54:26;96886.00;;;18.05;60.84
48778;BME280;34578;0.000;0.000;2023-05-24T20:59:26;96889.38;;;18.04;60.66
48778;BME280;34578;0.000;0.000;2023-05-24T21:04:26;96881.78;;;18.04;60.55
48778;BME280;34578;0.000;0.000;2023-05-24T21:09:27;96870.81;;;18.02;60.55
48778;BME280;34578;0.000;0.000;2023-05-24T21:14:29;96877.56;;;18.00;60.46
48778;BME280;34578;0.000;0.000;2023-05-24T21:19:29;96880.16;;;18.15;65.80
48778;BME280;34578;0.000;0.000;2023-05-24T21:24:30;96887.78;;;18.27;67.12
48778;BME280;34578;0.000;0.000;2023-05-24T21:29:30;96892.84;;;18.25;64.10
48778;BME280;34578;0.000;0.000;2023-05-24T21:34:31;96886.91;;;18.14;60.98
48778;BME280;34578;0.000;0.000;2023-05-24T21:39:31;96892.78;;;18.07;60.98
48778;BME280;34578;0.000;0.000;2023-05-24T21:44:32;96882.63;;;18.03;60.56
48778;BME280;34578;0.000;0.000;2023-05-24T21:49:32;96892.75;;;18.03;60.50
48778;BME280;34578;0.000;0.000;2023-05-24T21:54:32;96885.16;;;18.03;60.44
48778;BME280;34578;0.000;0.000;2023-05-24T21:59:33;96883.44;;;18.00;60.59
48778;BME280;34578;0.000;0.000;2023-05-24T22:04:33;96889.38;;;18.01;60.24
48778;BME280;34578;0.000;0.000;2023-05-24T22:09:33;96885.13;;;18.01;60.37
48778;BME280;34578;0.000;0.000;2023-05-24T22:14:34;96890.19;;;17.98;60.32
48778;BME280;34578;0.000;0.000;2023-05-24T22:19:37;96892.75;;;18.06;61.89
48778;BME280;34578;0.000;0.000;2023-05-24T22:24:37;96902.97;;;18.22;66.81
48778;BME280;34578;0.000;0.000;2023-05-24T22:29:38;96880.19;;;18.27;66.65
48778;BME280;34578;0.000;0.000;2023-05-24T22:34:38;96892.81;;;18.18;63.15
48778;BME280;34578;0.000;0.000;2023-05-24T22:39:38;96892.78;;;18.09;61.04
48778;BME280;34578;0.000;0.000;2023-05-24T22:44:39;96891.06;;;18.05;60.88
48778;BME280;34578;0.000;0.000;2023-05-24T22:49:39;96896.16;;;18.03;60.64
48778;BME280;34578;0.000;0.000;2023-05-24T22:54:40;96896.13;;;18.02;60.46
48778;BME280;34578;0.000;0.000;2023-05-24T22:59:41;96880.91;;;17.96;60.43
48778;BME280;34578;0.000;0.000;2023-05-24T23:04:42;96884.31;;;17.98;60.40
48778;BME280;34578;0.000;0.000;2023-05-24T23:09:45;96879.25;;;17.98;60.44
48778;BME280;34578;0.000;0.000;2023-05-24T23:14:45;96867.38;;;17.97;60.03
48778;BME280;34578;0.000;0.000;2023-05-24T23:19:47;96871.59;;;17.95;60.09
48778;BME280;34578;0.000;0.000;2023-05-24T23:24:49;96874.25;;;18.16;65.40
48778;BME280;34578;0.000;0.000;2023-05-24T23:29:49;96878.47;;;18.23;66.53
48778;BME280;34578;0.000;0.000;2023-05-24T23:34:50;96875.91;;;18.18;64.25
48778;BME280;34578;0.000;0.000;2023-05-24T23:39:50;96870.84;;;18.08;61.33
48778;BME280;34578;0.000;0.000;2023-05-24T23:44:51;96872.50;;;18.03;60.81
48778;BME280;34578;0.000;0.000;2023-05-24T23:49:51;96864.88;;;18.00;60.62
48778;BME280;34578;0.000;0.000;2023-05-24T23:54:51;96864.88;;;18.00;60.35
48778;BME280;34578;0.000;0.000;2023-05-24T23:59:52;96856.44;;;17.96;60.26
